sensor_id;sensor_type;location;lat;lon;timestamp;P1;durP1;ratioP1;P2;durP2;ratioP2
22904;SDS011;11619;50.140;8.518;2022-11-12T00:00:42;9.82;;;8.15;;
22904;SDS011;11619;50.140;8.518;2022-11-12T00:03:08;12.43;;;8.25;;
22904;SDS011;11619;50.140;8.518;2022-11-12T00:05:35;52.63;;;9.88;;
22904;SDS011;11619;50.140;8.518;2022-11-12T00:08:02;28.45;;;9.02;;
22904;SDS011;11619;50.140;8.518;2022-11-12T00:10:29;9.82;;;8.48;;
22904;SDS011;11619;50.140;8.518;2022-11-12T00:12:56;39.67;;;9.18;;
22904;SDS011;11619;50.140;8.518;2022-11-12T00:15:23;20.98;;;8.75;;
22904;SDS011;11619;50.140;8.518;2022-11-12T00:17:50;16.52;;;8.27;;
22904;SDS011;11619;50.140;8.518;2022-11-12T00:20:16;11.93;;;7.85;;
22904;SDS011;11619;50.140;8.518;2022-11-12T00:22:43;37.15;;;10.07;;
22904;SDS011;11619;50.140;8.518;2022-11-12T00:25:09;38.08;;;9.75;;
22904;SDS011;11619;50.140;8.518;2022-11-12T00:27:35;9.82;;;8.45;;
22904;SDS011;11619;50.140;8.518;2022-11-12T00:30:02;15.15;;;9.23;;
22904;SDS011;11619;50.140;8.518;2022-11-12T00:32:29;10.43;;;8.57;;
22904;SDS011;11619;50.140;8.518;2022-11-12T00:34:56;45.08;;;8.85;;
22904;SDS011;11619;50.140;8.518;2022-11-12T00:37:27;12.32;;;8.15;;
22904;SDS011;11619;50.140;8.518;2022-11-12T00:39:53;11.55;;;7.43;;
22904;SDS011;11619;50.140;8.518;2022-11-12T00:42:20;44.45;;;8.45;;
22904;SDS011;11619;50.140;8.518;2022-11-12T00:44:46;11.00;;;8.82;;
22904;SDS011;11619;50.140;8.518;2022-11-12T00:47:15;19.88;;;7.65;;
22904;SDS011;11619;50.140;8.518;2022-11-12T00:49:41;10.05;;;8.35;;
22904;SDS011;11619;50.140;8.518;2022-11-12T00:52:08;24.85;;;9.57;;
22904;SDS011;11619;50.140;8.518;2022-11-12T00:54:34;12.32;;;8.20;;
22904;SDS011;11619;50.140;8.518;2022-11-12T00:57:00;16.83;;;8.00;;
22904;SDS011;11619;50.140;8.518;2022-11-12T00:59:27;30.23;;;9.18;;
22904;SDS011;11619;50.140;8.518;2022-11-12T01:01:53;15.52;;;8.98;;
22904;SDS011;11619;50.140;8.518;2022-11-12T01:04:19;33.80;;;9.30;;
22904;SDS011;11619;50.140;8.518;2022-11-12T01:06:46;66.85;;;9.45;;
22904;SDS011;11619;50.140;8.518;2022-11-12T01:09:12;32.78;;;8.63;;
22904;SDS011;11619;50.140;8.518;2022-11-12T01:11:39;23.45;;;8.98;;
22904;SDS011;11619;50.140;8.518;2022-11-12T01:14:06;20.00;;;8.75;;
22904;SDS011;11619;50.140;8.518;2022-11-12T01:16:39;11.30;;;7.97;;
22904;SDS011;11619;50.140;8.518;2022-11-12T01:19:06;9.60;;;8.60;;
22904;SDS011;11619;50.140;8.518;2022-11-12T01:21:36;8.55;;;7.70;;
22904;SDS011;11619;50.140;8.518;2022-11-12T01:24:07;11.40;;;8.85;;
22904;SDS011;11619;50.140;8.518;2022-11-12T01:26:37;9.98;;;8.10;;
22904;SDS011;11619;50.140;8.518;2022-11-12T01:29:04;8.82;;;7.20;;
22904;SDS011;11619;50.140;8.518;2022-11-12T01:31:32;14.30;;;7.45;;
22904;SDS011;11619;50.140;8.518;2022-11-12T01:34:01;7.65;;;6.90;;
22904;SDS011;11619;50.140;8.518;2022-11-12T01:36:30;7.32;;;6.60;;
22904;SDS011;11619;50.140;8.518;2022-11-12T01:39:01;8.77;;;7.03;;
22904;SDS011;11619;50.140;8.518;2022-11-12T01:41:30;10.80;;;7.55;;
22904;SDS011;11619;50.140;8.518;2022-11-12T01:46:58;11.25;;;6.68;;
22904;SDS011;11619;50.140;8.518;2022-11-12T01:49:29;14.85;;;6.63;;
22904;SDS011;11619;50.140;8.518;2022-11-12T01:52:20;16.25;;;7.57;;
22904;SDS011;11619;50.140;8.518;2022-11-12T01:54:51;7.07;;;6.38;;
22904;SDS011;11619;50.140;8.518;2022-11-12T01:57:25;6.20;;;5.60;;
22904;SDS011;11619;50.140;8.518;2022-11-12T02:00:01;9.85;;;6.40;;
22904;SDS011;11619;50.140;8.518;2022-11-12T02:02:36;20.27;;;6.35;;
22904;SDS011;11619;50.140;8.518;2022-11-12T02:05:03;7.50;;;6.30;;
22904;SDS011;11619;50.140;8.518;2022-11-12T02:07:32;13.18;;;6.75;;
22904;SDS011;11619;50.140;8.518;2022-11-12T02:10:00;7.50;;;6.40;;
22904;SDS011;11619;50.140;8.518;2022-11-12T02:12:27;48.08;;;7.20;;
22904;SDS011;11619;50.140;8.518;2022-11-12T02:15:12;10.40;;;6.75;;
22904;SDS011;11619;50.140;8.518;2022-11-12T02:17:39;17.30;;;6.57;;
22904;SDS011;11619;50.140;8.518;2022-11-12T02:20:07;11.50;;;6.35;;
22904;SDS011;11619;50.140;8.518;2022-11-12T02:22:35;10.98;;;6.07;;
22904;SDS011;11619;50.140;8.518;2022-11-12T02:25:01;7.90;;;6.05;;
22904;SDS011;11619;50.140;8.518;2022-11-12T02:27:30;8.07;;;6.63;;
22904;SDS011;11619;50.140;8.518;2022-11-12T02:29:56;32.03;;;7.78;;
22904;SDS011;11619;50.140;8.518;2022-11-12T02:32:23;12.30;;;7.18;;
22904;SDS011;11619;50.140;8.518;2022-11-12T02:34:49;16.25;;;6.65;;
22904;SDS011;11619;50.140;8.518;2022-11-12T02:37:15;9.25;;;7.30;;
22904;SDS011;11619;50.140;8.518;2022-11-12T02:39:42;27.95;;;7.53;;
22904;SDS011;11619;50.140;8.518;2022-11-12T02:42:08;8.77;;;6.90;;
22904;SDS011;11619;50.140;8.518;2022-11-12T02:44:34;8.57;;;6.78;;
22904;SDS011;11619;50.140;8.518;2022-11-12T02:47:01;8.52;;;7.28;;
22904;SDS011;11619;50.140;8.518;2022-11-12T02:49:27;8.13;;;7.00;;
22904;SDS011;11619;50.140;8.518;2022-11-12T02:51:53;7.43;;;6.65;;
22904;SDS011;11619;50.140;8.518;2022-11-12T02:54:20;11.18;;;7.38;;
22904;SDS011;11619;50.140;8.518;2022-11-12T02:56:46;7.78;;;6.97;;
22904;SDS011;11619;50.140;8.518;2022-11-12T02:59:13;8.70;;;7.30;;
22904;SDS011;11619;50.140;8.518;2022-11-12T03:01:39;8.70;;;7.38;;
22904;SDS011;11619;50.140;8.518;2022-11-12T03:04:05;11.40;;;6.75;;
22904;SDS011;11619;50.140;8.518;2022-11-12T03:06:31;15.15;;;6.68;;
22904;SDS011;11619;50.140;8.518;2022-11-12T03:08:58;16.38;;;6.18;;
22904;SDS011;11619;50.140;8.518;2022-11-12T03:11:24;7.32;;;6.25;;
22904;SDS011;11619;50.140;8.518;2022-11-12T03:13:52;7.97;;;7.20;;
22904;SDS011;11619;50.140;8.518;2022-11-12T03:16:18;7.55;;;6.70;;
22904;SDS011;11619;50.140;8.518;2022-11-12T03:18:45;30.42;;;8.35;;
22904;SDS011;11619;50.140;8.518;2022-11-12T03:21:11;8.15;;;6.93;;
22904;SDS011;11619;50.140;8.518;2022-11-12T03:23:38;10.07;;;6.85;;
22904;SDS011;11619;50.140;8.518;2022-11-12T03:26:04;10.93;;;6.82;;
22904;SDS011;11619;50.140;8.518;2022-11-12T03:28:30;8.25;;;6.88;;
22904;SDS011;11619;50.140;8.518;2022-11-12T03:30:57;12.35;;;7.32;;
22904;SDS011;11619;50.140;8.518;2022-11-12T03:33:24;8.65;;;7.18;;
22904;SDS011;11619;50.140;8.518;2022-11-12T03:35:51;8.80;;;7.85;;
22904;SDS011;11619;50.140;8.518;2022-11-12T03:38:17;22.10;;;8.43;;
22904;SDS011;11619;50.140;8.518;2022-11-12T03:40:45;13.35;;;7.95;;
22904;SDS011;11619;50.140;8.518;2022-11-12T03:43:11;21.70;;;7.60;;
22904;SDS011;11619;50.140;8.518;2022-11-12T03:45:38;11.25;;;7.47;;
22904;SDS011;11619;50.140;8.518;2022-11-12T03:48:04;14.07;;;8.52;;
22904;SDS011;11619;50.140;8.518;2022-11-12T03:50:31;8.75;;;7.40;;
22904;SDS011;11619;50.140;8.518;2022-11-12T03:52:58;9.43;;;8.43;;
22904;SDS011;11619;50.140;8.518;2022-11-12T03:55:25;9.68;;;7.85;;
22904;SDS011;11619;50.140;8.518;2022-11-12T03:57:53;10.60;;;8.35;;
22904;SDS011;11619;50.140;8.518;2022-11-12T04:00:21;12.48;;;8.88;;
22904;SDS011;11619;50.140;8.518;2022-11-12T04:02:48;10.75;;;8.82;;
22904;SDS011;11619;50.140;8.518;2022-11-12T04:05:15;25.13;;;8.52;;
22904;SDS011;11619;50.140;8.518;2022-11-12T04:08:02;12.25;;;9.13;;
22904;SDS011;11619;50.140;8.518;2022-11-12T04:10:53;10.57;;;9.07;;
22904;SDS011;11619;50.140;8.518;2022-11-12T04:13:20;11.18;;;8.88;;
22904;SDS011;11619;50.140;8.518;2022-11-12T04:18:46;10.32;;;8.70;;
22904;SDS011;11619;50.140;8.518;2022-11-12T04:21:33;17.65;;;9.75;;
22904;SDS011;11619;50.140;8.518;2022-11-12T04:24:26;15.82;;;9.48;;
22904;SDS011;11619;50.140;8.518;2022-11-12T04:27:21;33.40;;;9.77;;
22904;SDS011;11619;50.140;8.518;2022-11-12T04:29:55;23.30;;;10.10;;
22904;SDS011;11619;50.140;8.518;2022-11-12T04:32:45;10.15;;;8.40;;
22904;SDS011;11619;50.140;8.518;2022-11-12T04:35:13;26.60;;;10.02;;
22904;SDS011;11619;50.140;8.518;2022-11-12T04:37:39;33.10;;;9.30;;
22904;SDS011;11619;50.140;8.518;2022-11-12T04:42:58;33.95;;;9.00;;
22904;SDS011;11619;50.140;8.518;2022-11-12T04:45:44;11.55;;;8.77;;
22904;SDS011;11619;50.140;8.518;2022-11-12T04:48:12;15.65;;;8.95;;
22904;SDS011;11619;50.140;8.518;2022-11-12T04:50:39;13.48;;;8.15;;
22904;SDS011;11619;50.140;8.518;2022-11-12T04:53:07;16.52;;;9.15;;
22904;SDS011;11619;50.140;8.518;2022-11-12T04:55:33;17.10;;;7.97;;
22904;SDS011;11619;50.140;8.518;2022-11-12T04:57:59;9.98;;;8.93;;
22904;SDS011;11619;50.140;8.518;2022-11-12T05:00:26;18.92;;;10.25;;
22904;SDS011;11619;50.140;8.518;2022-11-12T05:02:53;13.73;;;9.55;;
22904;SDS011;11619;50.140;8.518;2022-11-12T05:05:19;23.65;;;9.48;;
22904;SDS011;11619;50.140;8.518;2022-11-12T05:07:45;29.58;;;8.95;;
22904;SDS011;11619;50.140;8.518;2022-11-12T05:10:12;37.55;;;9.45;;
22904;SDS011;11619;50.140;8.518;2022-11-12T05:12:38;11.52;;;8.35;;
22904;SDS011;11619;50.140;8.518;2022-11-12T05:15:05;11.45;;;8.90;;
22904;SDS011;11619;50.140;8.518;2022-11-12T05:17:32;14.05;;;9.02;;
22904;SDS011;11619;50.140;8.518;2022-11-12T05:19:58;15.73;;;9.43;;
22904;SDS011;11619;50.140;8.518;2022-11-12T05:22:24;13.68;;;9.95;;
22904;SDS011;11619;50.140;8.518;2022-11-12T05:25:10;12.13;;;8.73;;
22904;SDS011;11619;50.140;8.518;2022-11-12T05:27:37;11.85;;;9.15;;
22904;SDS011;11619;50.140;8.518;2022-11-12T05:30:04;15.40;;;8.52;;
22904;SDS011;11619;50.140;8.518;2022-11-12T05:32:30;25.20;;;9.52;;
22904;SDS011;11619;50.140;8.518;2022-11-12T05:34:57;23.35;;;9.02;;
22904;SDS011;11619;50.140;8.518;2022-11-12T05:37:23;12.20;;;9.10;;
22904;SDS011;11619;50.140;8.518;2022-11-12T05:39:49;36.65;;;9.60;;
22904;SDS011;11619;50.140;8.518;2022-11-12T05:42:16;31.90;;;9.77;;
22904;SDS011;11619;50.140;8.518;2022-11-12T05:44:42;18.13;;;8.95;;
22904;SDS011;11619;50.140;8.518;2022-11-12T05:47:08;29.65;;;10.15;;
22904;SDS011;11619;50.140;8.518;2022-11-12T05:49:35;32.05;;;9.90;;
22904;SDS011;11619;50.140;8.518;2022-11-12T05:52:01;24.95;;;10.35;;
22904;SDS011;11619;50.140;8.518;2022-11-12T05:54:27;23.50;;;10.65;;
22904;SDS011;11619;50.140;8.518;2022-11-12T05:56:54;15.57;;;10.38;;
22904;SDS011;11619;50.140;8.518;2022-11-12T05:59:20;14.35;;;9.57;;
22904;SDS011;11619;50.140;8.518;2022-11-12T06:01:47;12.77;;;9.75;;
22904;SDS011;11619;50.140;8.518;2022-11-12T06:04:14;21.45;;;10.43;;
22904;SDS011;11619;50.140;8.518;2022-11-12T06:06:41;20.17;;;10.80;;
22904;SDS011;11619;50.140;8.518;2022-11-12T06:09:08;15.18;;;11.23;;
22904;SDS011;11619;50.140;8.518;2022-11-12T06:11:35;26.08;;;11.00;;
22904;SDS011;11619;50.140;8.518;2022-11-12T06:14:02;14.07;;;11.18;;
22904;SDS011;11619;50.140;8.518;2022-11-12T06:16:29;21.95;;;10.75;;
22904;SDS011;11619;50.140;8.518;2022-11-12T06:18:55;29.48;;;9.98;;
22904;SDS011;11619;50.140;8.518;2022-11-12T06:21:21;17.05;;;10.93;;
22904;SDS011;11619;50.140;8.518;2022-11-12T06:23:52;35.80;;;10.95;;
22904;SDS011;11619;50.140;8.518;2022-11-12T06:28:49;35.65;;;11.00;;
22904;SDS011;11619;50.140;8.518;2022-11-12T06:31:16;28.60;;;10.60;;
22904;SDS011;11619;50.140;8.518;2022-11-12T06:33:46;16.40;;;11.38;;
22904;SDS011;11619;50.140;8.518;2022-11-12T06:36:13;17.33;;;10.55;;
22904;SDS011;11619;50.140;8.518;2022-11-12T06:38:41;23.92;;;11.32;;
22904;SDS011;11619;50.140;8.518;2022-11-12T06:41:08;18.92;;;10.20;;
22904;SDS011;11619;50.140;8.518;2022-11-12T06:43:39;24.05;;;11.20;;
22904;SDS011;11619;50.140;8.518;2022-11-12T06:46:07;37.30;;;10.65;;
22904;SDS011;11619;50.140;8.518;2022-11-12T06:48:37;16.27;;;10.43;;
22904;SDS011;11619;50.140;8.518;2022-11-12T06:51:11;13.10;;;9.77;;
22904;SDS011;11619;50.140;8.518;2022-11-12T06:53:42;16.13;;;9.70;;
22904;SDS011;11619;50.140;8.518;2022-11-12T06:56:08;44.38;;;10.80;;
22904;SDS011;11619;50.140;8.518;2022-11-12T06:58:35;13.80;;;10.13;;
22904;SDS011;11619;50.140;8.518;2022-11-12T07:01:15;46.58;;;11.07;;
22904;SDS011;11619;50.140;8.518;2022-11-12T07:03:42;22.25;;;9.95;;
22904;SDS011;11619;50.140;8.518;2022-11-12T07:06:10;18.77;;;11.18;;
22904;SDS011;11619;50.140;8.518;2022-11-12T07:08:38;15.10;;;10.02;;
22904;SDS011;11619;50.140;8.518;2022-11-12T07:11:05;25.55;;;11.00;;
22904;SDS011;11619;50.140;8.518;2022-11-12T07:13:32;25.08;;;11.25;;
22904;SDS011;11619;50.140;8.518;2022-11-12T07:16:03;16.10;;;10.45;;
22904;SDS011;11619;50.140;8.518;2022-11-12T07:18:31;15.82;;;11.85;;
22904;SDS011;11619;50.140;8.518;2022-11-12T07:20:59;16.88;;;12.48;;
22904;SDS011;11619;50.140;8.518;2022-11-12T07:23:27;18.85;;;13.18;;
22904;SDS011;11619;50.140;8.518;2022-11-12T07:25:56;30.88;;;13.60;;
22904;SDS011;11619;50.140;8.518;2022-11-12T07:28:24;18.00;;;10.63;;
22904;SDS011;11619;50.140;8.518;2022-11-12T07:30:57;27.23;;;14.57;;
22904;SDS011;11619;50.140;8.518;2022-11-12T07:33:28;25.40;;;16.15;;
22904;SDS011;11619;50.140;8.518;2022-11-12T07:35:58;26.60;;;16.13;;
22904;SDS011;11619;50.140;8.518;2022-11-12T07:38:26;17.67;;;12.90;;
22904;SDS011;11619;50.140;8.518;2022-11-12T07:40:57;17.45;;;13.13;;
22904;SDS011;11619;50.140;8.518;2022-11-12T07:43:25;13.57;;;11.50;;
22904;SDS011;11619;50.140;8.518;2022-11-12T07:45:52;13.95;;;10.63;;
22904;SDS011;11619;50.140;8.518;2022-11-12T07:48:18;13.55;;;10.25;;
22904;SDS011;11619;50.140;8.518;2022-11-12T07:50:44;13.48;;;10.63;;
22904;SDS011;11619;50.140;8.518;2022-11-12T07:53:11;12.45;;;10.38;;
22904;SDS011;11619;50.140;8.518;2022-11-12T07:55:37;13.77;;;10.25;;
22904;SDS011;11619;50.140;8.518;2022-11-12T07:58:03;13.63;;;10.48;;
22904;SDS011;11619;50.140;8.518;2022-11-12T08:00:30;21.02;;;11.00;;
22904;SDS011;11619;50.140;8.518;2022-11-12T08:02:58;15.30;;;10.85;;
22904;SDS011;11619;50.140;8.518;2022-11-12T08:05:25;13.32;;;10.65;;
22904;SDS011;11619;50.140;8.518;2022-11-12T08:07:54;13.82;;;10.45;;
22904;SDS011;11619;50.140;8.518;2022-11-12T08:10:21;17.75;;;11.68;;
22904;SDS011;11619;50.140;8.518;2022-11-12T08:12:48;18.70;;;11.27;;
22904;SDS011;11619;50.140;8.518;2022-11-12T08:15:14;16.17;;;11.27;;
22904;SDS011;11619;50.140;8.518;2022-11-12T08:17:42;14.77;;;11.52;;
22904;SDS011;11619;50.140;8.518;2022-11-12T08:20:08;16.77;;;12.60;;
22904;SDS011;11619;50.140;8.518;2022-11-12T08:22:35;16.67;;;12.02;;
22904;SDS011;11619;50.140;8.518;2022-11-12T08:25:01;16.48;;;12.55;;
22904;SDS011;11619;50.140;8.518;2022-11-12T08:27:28;16.98;;;11.57;;
22904;SDS011;11619;50.140;8.518;2022-11-12T08:29:54;12.88;;;10.38;;
22904;SDS011;11619;50.140;8.518;2022-11-12T08:32:20;17.30;;;11.95;;
22904;SDS011;11619;50.140;8.518;2022-11-12T08:34:47;15.75;;;12.70;;
22904;SDS011;11619;50.140;8.518;2022-11-12T08:37:13;16.70;;;12.68;;
22904;SDS011;11619;50.140;8.518;2022-11-12T08:39:39;15.98;;;12.63;;
22904;SDS011;11619;50.140;8.518;2022-11-12T08:42:06;16.33;;;12.57;;
22904;SDS011;11619;50.140;8.518;2022-11-12T08:44:32;17.27;;;13.38;;
22904;SDS011;11619;50.140;8.518;2022-11-12T08:46:58;16.05;;;13.32;;
22904;SDS011;11619;50.140;8.518;2022-11-12T08:49:25;18.48;;;13.05;;
22904;SDS011;11619;50.140;8.518;2022-11-12T08:51:51;18.00;;;14.05;;
22904;SDS011;11619;50.140;8.518;2022-11-12T08:54:18;17.15;;;13.70;;
22904;SDS011;11619;50.140;8.518;2022-11-12T08:56:44;15.98;;;12.73;;
22904;SDS011;11619;50.140;8.518;2022-11-12T08:59:10;23.30;;;13.23;;
22904;SDS011;11619;50.140;8.518;2022-11-12T09:01:37;19.38;;;13.30;;
22904;SDS011;11619;50.140;8.518;2022-11-12T09:04:03;21.52;;;14.07;;
22904;SDS011;11619;50.140;8.518;2022-11-12T09:06:30;16.45;;;12.93;;
22904;SDS011;11619;50.140;8.518;2022-11-12T09:08:56;21.27;;;15.00;;
22904;SDS011;11619;50.140;8.518;2022-11-12T09:11:22;18.08;;;15.05;;
22904;SDS011;11619;50.140;8.518;2022-11-12T09:13:51;20.25;;;15.10;;
22904;SDS011;11619;50.140;8.518;2022-11-12T09:16:20;23.92;;;13.63;;
22904;SDS011;11619;50.140;8.518;2022-11-12T09:18:47;32.08;;;13.65;;
22904;SDS011;11619;50.140;8.518;2022-11-12T09:21:13;14.75;;;12.18;;
22904;SDS011;11619;50.140;8.518;2022-11-12T09:23:39;17.80;;;13.63;;
22904;SDS011;11619;50.140;8.518;2022-11-12T09:26:06;17.30;;;13.90;;
22904;SDS011;11619;50.140;8.518;2022-11-12T09:28:32;18.08;;;14.98;;
22904;SDS011;11619;50.140;8.518;2022-11-12T09:30:58;17.00;;;13.73;;
22904;SDS011;11619;50.140;8.518;2022-11-12T09:33:26;20.38;;;15.82;;
22904;SDS011;11619;50.140;8.518;2022-11-12T09:35:55;20.92;;;15.75;;
22904;SDS011;11619;50.140;8.518;2022-11-12T09:38:21;16.67;;;14.05;;
22904;SDS011;11619;50.140;8.518;2022-11-12T09:43:18;25.20;;;17.10;;
22904;SDS011;11619;50.140;8.518;2022-11-12T09:45:48;27.00;;;18.70;;
22904;SDS011;11619;50.140;8.518;2022-11-12T09:48:38;24.50;;;17.90;;
22904;SDS011;11619;50.140;8.518;2022-11-12T09:54:05;17.15;;;14.38;;
22904;SDS011;11619;50.140;8.518;2022-11-12T09:56:41;16.65;;;14.30;;
22904;SDS011;11619;50.140;8.518;2022-11-12T09:59:11;15.52;;;13.25;;
22904;SDS011;11619;50.140;8.518;2022-11-12T10:04:38;16.73;;;14.07;;
22904;SDS011;11619;50.140;8.518;2022-11-12T10:10:13;15.32;;;13.73;;
22904;SDS011;11619;50.140;8.518;2022-11-12T10:12:57;16.45;;;14.43;;
22904;SDS011;11619;50.140;8.518;2022-11-12T10:15:51;15.85;;;13.60;;
22904;SDS011;11619;50.140;8.518;2022-11-12T10:21:40;19.35;;;13.55;;
22904;SDS011;11619;50.140;8.518;2022-11-12T10:24:11;14.23;;;12.43;;
22904;SDS011;11619;50.140;8.518;2022-11-12T10:26:38;15.20;;;12.80;;
22904;SDS011;11619;50.140;8.518;2022-11-12T10:31:52;17.45;;;15.15;;
22904;SDS011;11619;50.140;8.518;2022-11-12T10:34:19;13.88;;;12.45;;
22904;SDS011;11619;50.140;8.518;2022-11-12T10:36:48;13.88;;;12.25;;
22904;SDS011;11619;50.140;8.518;2022-11-12T10:39:31;13.75;;;12.30;;
22904;SDS011;11619;50.140;8.518;2022-11-12T10:44:34;14.03;;;12.53;;
22904;SDS011;11619;50.140;8.518;2022-11-12T10:47:23;12.98;;;11.63;;
22904;SDS011;11619;50.140;8.518;2022-11-12T10:52:36;13.10;;;11.80;;
22904;SDS011;11619;50.140;8.518;2022-11-12T10:55:15;14.05;;;12.60;;
22904;SDS011;11619;50.140;8.518;2022-11-12T10:57:43;13.88;;;12.27;;
22904;SDS011;11619;50.140;8.518;2022-11-12T11:00:14;12.70;;;11.40;;
22904;SDS011;11619;50.140;8.518;2022-11-12T11:02:46;13.52;;;11.95;;
22904;SDS011;11619;50.140;8.518;2022-11-12T11:05:24;13.27;;;11.93;;
22904;SDS011;11619;50.140;8.518;2022-11-12T11:07:52;13.10;;;11.80;;
22904;SDS011;11619;50.140;8.518;2022-11-12T11:10:26;14.07;;;12.65;;
22904;SDS011;11619;50.140;8.518;2022-11-12T11:18:22;14.27;;;12.75;;
22904;SDS011;11619;50.140;8.518;2022-11-12T11:20:58;13.57;;;12.20;;
22904;SDS011;11619;50.140;8.518;2022-11-12T11:23:36;15.82;;;14.05;;
22904;SDS011;11619;50.140;8.518;2022-11-12T11:29:20;17.83;;;15.00;;
22904;SDS011;11619;50.140;8.518;2022-11-12T11:31:58;15.73;;;14.02;;
22904;SDS011;11619;50.140;8.518;2022-11-12T11:40:05;15.98;;;14.25;;
22904;SDS011;11619;50.140;8.518;2022-11-12T11:45:53;16.95;;;15.15;;
22904;SDS011;11619;50.140;8.518;2022-11-12T11:51:06;17.17;;;15.10;;
22904;SDS011;11619;50.140;8.518;2022-11-12T11:53:53;19.35;;;17.25;;
22904;SDS011;11619;50.140;8.518;2022-11-12T11:56:26;18.58;;;16.48;;
22904;SDS011;11619;50.140;8.518;2022-11-12T11:59:04;18.50;;;16.38;;
22904;SDS011;11619;50.140;8.518;2022-11-12T12:01:55;19.55;;;16.67;;
22904;SDS011;11619;50.140;8.518;2022-11-12T12:10:18;21.00;;;18.20;;
22904;SDS011;11619;50.140;8.518;2022-11-12T12:13:12;18.92;;;16.92;;
22904;SDS011;11619;50.140;8.518;2022-11-12T12:15:46;21.25;;;17.88;;
22904;SDS011;11619;50.140;8.518;2022-11-12T12:23:47;18.58;;;16.67;;
22904;SDS011;11619;50.140;8.518;2022-11-12T12:31:37;19.13;;;17.13;;
22904;SDS011;11619;50.140;8.518;2022-11-12T12:34:26;19.73;;;17.70;;
22904;SDS011;11619;50.140;8.518;2022-11-12T12:36:56;20.40;;;18.20;;
22904;SDS011;11619;50.140;8.518;2022-11-12T12:39:35;19.20;;;17.13;;
22904;SDS011;11619;50.140;8.518;2022-11-12T12:42:25;21.15;;;18.13;;
22904;SDS011;11619;50.140;8.518;2022-11-12T12:45:02;20.20;;;17.65;;
22904;SDS011;11619;50.140;8.518;2022-11-12T12:47:48;20.70;;;18.45;;
22904;SDS011;11619;50.140;8.518;2022-11-12T12:50:15;21.27;;;18.23;;
22904;SDS011;11619;50.140;8.518;2022-11-12T12:52:59;23.17;;;18.48;;
22904;SDS011;11619;50.140;8.518;2022-11-12T12:55:33;18.98;;;16.98;;
22904;SDS011;11619;50.140;8.518;2022-11-12T12:58:14;20.10;;;17.98;;
22904;SDS011;11619;50.140;8.518;2022-11-12T13:01:02;20.55;;;18.35;;
22904;SDS011;11619;50.140;8.518;2022-11-12T13:06:21;20.10;;;18.00;;
22904;SDS011;11619;50.140;8.518;2022-11-12T13:09:23;19.17;;;16.55;;
22904;SDS011;11619;50.140;8.518;2022-11-12T13:19:46;19.92;;;17.80;;
22904;SDS011;11619;50.140;8.518;2022-11-12T13:22:46;22.05;;;19.70;;
22904;SDS011;11619;50.140;8.518;2022-11-12T13:30:54;21.15;;;18.90;;
22904;SDS011;11619;50.140;8.518;2022-11-12T13:32:56;21.73;;;19.35;;
22904;SDS011;11619;50.140;8.518;2022-11-12T13:45:52;20.90;;;18.70;;
22904;SDS011;11619;50.140;8.518;2022-11-12T13:48:24;20.63;;;18.42;;
22904;SDS011;11619;50.140;8.518;2022-11-12T13:50:54;19.93;;;17.87;;
22904;SDS011;11619;50.140;8.518;2022-11-12T13:53:25;20.80;;;18.70;;
22904;SDS011;11619;50.140;8.518;2022-11-12T13:55:52;20.23;;;18.23;;
22904;SDS011;11619;50.140;8.518;2022-11-12T13:58:29;19.90;;;17.90;;
22904;SDS011;11619;50.140;8.518;2022-11-12T14:00:59;22.42;;;18.98;;
22904;SDS011;11619;50.140;8.518;2022-11-12T14:03:27;20.92;;;18.73;;
22904;SDS011;11619;50.140;8.518;2022-11-12T14:06:01;21.88;;;18.17;;
22904;SDS011;11619;50.140;8.518;2022-11-12T14:11:21;21.02;;;18.83;;
22904;SDS011;11619;50.140;8.518;2022-11-12T14:19:25;21.30;;;19.10;;
22904;SDS011;11619;50.140;8.518;2022-11-12T14:22:13;20.63;;;18.60;;
22904;SDS011;11619;50.140;8.518;2022-11-12T14:24:41;21.23;;;19.08;;
22904;SDS011;11619;50.140;8.518;2022-11-12T14:27:42;19.33;;;17.45;;
22904;SDS011;11619;50.140;8.518;2022-11-12T14:32:37;21.67;;;18.80;;
22904;SDS011;11619;50.140;8.518;2022-11-12T14:35:20;20.15;;;18.17;;
22904;SDS011;11619;50.140;8.518;2022-11-12T14:37:57;21.33;;;19.13;;
22904;SDS011;11619;50.140;8.518;2022-11-12T14:40:26;19.65;;;17.55;;
22904;SDS011;11619;50.140;8.518;2022-11-12T14:42:53;21.15;;;18.95;;
22904;SDS011;11619;50.140;8.518;2022-11-12T14:45:20;19.92;;;17.95;;
22904;SDS011;11619;50.140;8.518;2022-11-12T14:47:48;20.73;;;18.45;;
22904;SDS011;11619;50.140;8.518;2022-11-12T14:50:18;20.42;;;18.27;;
22904;SDS011;11619;50.140;8.518;2022-11-12T14:52:49;20.90;;;18.70;;
22904;SDS011;11619;50.140;8.518;2022-11-12T14:55:21;22.75;;;20.10;;
22904;SDS011;11619;50.140;8.518;2022-11-12T14:57:50;21.27;;;19.08;;
22904;SDS011;11619;50.140;8.518;2022-11-12T15:02:43;22.75;;;20.38;;
22904;SDS011;11619;50.140;8.518;2022-11-12T15:05:24;24.02;;;21.40;;
22904;SDS011;11619;50.140;8.518;2022-11-12T15:07:53;23.13;;;19.92;;
22904;SDS011;11619;50.140;8.518;2022-11-12T15:10:40;28.73;;;20.52;;
22904;SDS011;11619;50.140;8.518;2022-11-12T15:13:13;23.80;;;21.30;;
22904;SDS011;11619;50.140;8.518;2022-11-12T15:15:53;22.40;;;20.00;;
22904;SDS011;11619;50.140;8.518;2022-11-12T15:18:28;22.02;;;19.83;;
22904;SDS011;11619;50.140;8.518;2022-11-12T15:23:46;20.95;;;18.85;;
22904;SDS011;11619;50.140;8.518;2022-11-12T15:26:21;22.35;;;20.05;;
22904;SDS011;11619;50.140;8.518;2022-11-12T15:29:25;25.20;;;20.45;;
22904;SDS011;11619;50.140;8.518;2022-11-12T15:37:06;24.17;;;21.52;;
22904;SDS011;11619;50.140;8.518;2022-11-12T15:39:40;27.77;;;22.80;;
22904;SDS011;11619;50.140;8.518;2022-11-12T15:42:14;27.63;;;21.88;;
22904;SDS011;11619;50.140;8.518;2022-11-12T15:44:42;25.50;;;22.33;;
22904;SDS011;11619;50.140;8.518;2022-11-12T15:47:14;29.10;;;24.50;;
22904;SDS011;11619;50.140;8.518;2022-11-12T15:49:51;28.50;;;25.20;;
22904;SDS011;11619;50.140;8.518;2022-11-12T15:52:19;27.00;;;24.05;;
22904;SDS011;11619;50.140;8.518;2022-11-12T15:54:45;42.53;;;24.10;;
22904;SDS011;11619;50.140;8.518;2022-11-12T15:57:15;29.27;;;23.90;;
22904;SDS011;11619;50.140;8.518;2022-11-12T15:59:43;29.63;;;24.50;;
22904;SDS011;11619;50.140;8.518;2022-11-12T16:02:13;30.60;;;26.00;;
22904;SDS011;11619;50.140;8.518;2022-11-12T16:04:40;34.45;;;25.02;;
22904;SDS011;11619;50.140;8.518;2022-11-12T16:07:07;30.98;;;24.08;;
22904;SDS011;11619;50.140;8.518;2022-11-12T16:09:34;31.30;;;21.83;;
22904;SDS011;11619;50.140;8.518;2022-11-12T16:12:00;23.45;;;21.00;;
22904;SDS011;11619;50.140;8.518;2022-11-12T16:14:27;32.50;;;21.92;;
22904;SDS011;11619;50.140;8.518;2022-11-12T16:16:53;25.20;;;21.67;;
22904;SDS011;11619;50.140;8.518;2022-11-12T16:19:20;34.33;;;21.70;;
22904;SDS011;11619;50.140;8.518;2022-11-12T16:21:47;57.35;;;21.15;;
22904;SDS011;11619;50.140;8.518;2022-11-12T16:24:15;27.70;;;22.17;;
22904;SDS011;11619;50.140;8.518;2022-11-12T16:26:41;29.13;;;22.98;;
22904;SDS011;11619;50.140;8.518;2022-11-12T16:29:09;32.05;;;21.83;;
22904;SDS011;11619;50.140;8.518;2022-11-12T16:31:39;28.05;;;20.27;;
22904;SDS011;11619;50.140;8.518;2022-11-12T16:34:06;33.20;;;21.63;;
22904;SDS011;11619;50.140;8.518;2022-11-12T16:36:33;23.33;;;19.88;;
22904;SDS011;11619;50.140;8.518;2022-11-12T16:39:00;21.48;;;19.27;;
22904;SDS011;11619;50.140;8.518;2022-11-12T16:41:27;31.70;;;20.70;;
22904;SDS011;11619;50.140;8.518;2022-11-12T16:43:53;24.70;;;22.15;;